Time;durP1;ratioP1;P1;durP2;ratioP2;P2;SDS_P1;SDS_P2;PMS_P1;PMS_P2;Temp;Humidity;BMP_temperature;BMP_pressure;BME280_temperature;BME280_humidity;BME280_pressure;Samples;Min_cycle;Max_cycle;Signal;HPM_P1;HPM_P2
2022/05/30 02:06:07;;;;;;;10.70;9.20;;;;;;;10.60;72.83;99268.62;214532;1276;141900;-64
2022/05/30 02:11:11;;;;;;;9.90;6.70;;;;;;;10.64;72.83;99262.98;214784;1277;141572;-65
2022/05/30 02:21:38;;;;;;;7.40;6.30;;;;;;;10.70;72.72;99250.95;213540;1276;141409;-63
2022/05/30 02:26:43;;;;;;;9.80;7.80;;;;;;;10.61;72.89;99252.86;214137;1277;141509;-63
2022/05/30 02:31:47;;;;;;;9.50;7.10;;;;;;;10.51;72.83;99248.60;213504;1277;139597;-66
2022/05/30 02:36:53;;;;;;;6.20;5.70;;;;;;;10.48;73.03;99247.34;213581;1276;141614;-65
2022/05/30 02:41:58;;;;;;;12.60;6.70;;;;;;;10.47;72.98;99243.86;214195;1276;140218;-64
2022/05/30 02:47:04;;;;;;;14.90;7.20;;;;;;;10.50;73.25;99243.16;215398;1276;141129;-63
2022/05/30 02:52:09;;;;;;;7.90;6.70;;;;;;;10.51;72.97;99242.95;213887;1276;140062;-63
2022/05/30 02:57:14;;;;;;;8.60;6.10;;;;;;;10.36;72.88;99247.56;214480;1277;140601;-66
2022/05/30 03:02:18;;;;;;;9.90;5.70;;;;;;;10.33;73.13;99250.98;215510;1276;141368;-63
2022/05/30 03:07:23;;;;;;;6.90;6.10;;;;;;;10.32;73.09;99254.65;215196;1275;150189;-63
2022/05/30 03:12:28;;;;;;;7.10;4.60;;;;;;;10.19;73.06;99257.73;215994;1276;140024;-64
2022/05/30 03:17:32;;;;;;;11.80;6.50;;;;;;;10.13;73.27;99257.41;215744;1277;141109;-64
2022/05/30 03:22:36;;;;;;;12.40;6.30;;;;;;;10.19;73.48;99252.29;215776;1275;140894;-65
2022/05/30 03:27:41;;;;;;;9.10;6.10;;;;;;;10.24;73.41;99250.63;215670;1276;141364;-65
2022/05/30 03:32:46;;;;;;;9.10;5.10;;;;;;;10.34;73.27;99251.31;215816;1277;142346;-65
2022/05/30 03:37:51;;;;;;;6.70;4.80;;;;;;;10.43;73.05;99250.27;213983;1277;141076;-63
2022/05/30 03:42:57;;;;;;;6.00;5.40;;;;;;;10.57;72.98;99242.88;214309;1277;142591;-63
2022/05/30 03:48:01;;;;;;;6.50;5.70;;;;;;;10.82;73.30;99241.17;213416;1277;162831;-63
2022/05/30 03:53:07;;;;;;;7.60;6.10;;;;;;;11.16;73.09;99241.69;213483;1276;139964;-64
2022/05/30 03:58:13;;;;;;;7.30;4.70;;;;;;;11.50;72.77;99242.94;214202;1277;141869;-64
2022/05/30 04:03:18;;;;;;;9.60;4.60;;;;;;;11.80;72.30;99242.59;213354;1277;141476;-63
2022/05/30 04:08:23;;;;;;;4.90;4.20;;;;;;;11.99;71.57;99234.83;212939;1276;139551;-65
2022/05/30 04:13:29;;;;;;;5.50;3.50;;;;;;;12.17;71.50;99235.38;214017;1277;139264;-64
2022/05/30 04:18:33;;;;;;;5.40;3.80;;;;;;;12.35;70.83;99235.02;213255;1276;140089;-64
2022/05/30 04:23:41;;;;;;;4.90;4.20;;;;;;;12.46;70.52;99239.17;213876;1276;141769;-63
2022/05/30 04:28:46;;;;;;;4.40;3.60;;;;;;;12.60;69.73;99235.79;214312;1277;140114;-64
2022/05/30 04:33:50;;;;;;;3.90;3.50;;;;;;;12.68;69.45;99234.51;214185;1277;139202;-63
2022/05/30 04:38:54;;;;;;;4.20;3.40;;;;;;;12.83;69.12;99234.36;215400;1276;139671;-65
2022/05/30 04:43:59;;;;;;;4.50;3.70;;;;;;;13.06;68.94;99234.77;214249;1277;140540;-66
2022/05/30 04:49:05;;;;;;;4.20;3.00;;;;;;;13.30;68.74;99231.86;213867;1276;141268;-63
2022/05/30 04:54:09;;;;;;;4.90;3.10;;;;;;;13.46;68.45;99231.77;213537;1277;206237;-64
2022/05/30 04:59:14;;;;;;;3.90;3.00;;;;;;;13.66;68.12;99232.56;214271;1276;957103;-62
2022/05/30 05:04:18;;;;;;;3.50;2.20;;;;;;;13.88;67.79;99230.67;215354;1277;140737;-62
2022/05/30 05:09:40;;;;;;;5.00;2.70;;;;;;;14.03;66.85;99232.52;214557;1276;140558;-62
2022/05/30 05:14:44;;;;;;;3.10;2.80;;;;;;;14.11;66.60;99231.25;215560;1276;140457;-64
2022/05/30 05:19:47;;;;;;;4.80;3.30;;;;;;;14.15;66.25;99228.08;215871;1276;139904;-64
2022/05/30 05:24:50;;;;;;;4.80;2.50;;;;;;;14.15;66.18;99225.45;215783;1276;236098;-63
2022/05/30 05:29:54;;;;;;;3.80;2.40;;;;;;;14.09;65.88;99222.84;215692;1276;139921;-63
2022/05/30 05:34:58;;;;;;;2.80;2.50;;;;;;;14.00;65.61;99227.19;214027;1276;140004;-64
2022/05/30 05:40:03;;;;;;;3.70;2.50;;;;;;;13.82;65.37;99225.27;214159;1276;140859;-64
2022/05/30 05:45:08;;;;;;;7.60;2.60;;;;;;;13.71;65.24;99228.66;214652;1276;139812;-65
2022/05/30 05:50:12;;;;;;;3.60;2.90;;;;;;;13.65;65.58;99222.86;215019;1276;139376;-64
2022/05/30 05:55:18;;;;;;;4.80;2.90;;;;;;;13.67;65.52;99221.84;214267;1276;139963;-65
2022/05/30 06:00:23;;;;;;;5.30;2.70;;;;;;;13.67;65.43;99217.83;212619;1275;139432;-62
2022/05/30 06:05:30;;;;;;;1.90;1.70;;;;;;;13.71;65.82;99214.52;214507;1276;139154;-62
2022/05/30 06:11:04;;;;;;;3.60;3.00;;;;;;;13.69;65.14;99219.71;213581;1276;140934;-62
2022/05/30 06:22:45;;;;;;;2.40;2.20;;;;;;;13.78;65.39;99216.52;212867;1276;144088;-63
2022/05/30 06:27:50;;;;;;;3.70;3.00;;;;;;;13.92;65.39;99214.98;213533;1276;139831;-65
2022/05/30 06:32:54;;;;;;;4.00;2.50;;;;;;;14.07;65.40;99219.05;215044;1276;139807;-64
2022/05/30 06:38:00;;;;;;;3.60;2.60;;;;;;;14.25;65.04;99216.23;215617;1276;139776;-64
2022/05/30 06:43:05;;;;;;;3.10;2.70;;;;;;;14.44;64.75;99215.39;214514;1276;141327;-64
2022/05/30 06:48:09;;;;;;;3.80;2.40;;;;;;;14.76;64.28;99211.33;214346;1276;141484;-63
2022/05/30 06:53:13;;;;;;;2.50;2.10;;;;;;;15.19;64.35;99212.93;215449;1276;140191;-63
2022/05/30 06:58:18;;;;;;;3.40;2.80;;;;;;;15.73;63.89;99213.51;215713;1275;139562;-62
2022/05/30 07:03:24;;;;;;;4.50;3.20;;;;;;;16.04;63.12;99212.91;215865;1275;142614;-62
2022/05/30 07:08:27;;;;;;;3.20;2.30;;;;;;;16.51;62.82;99215.03;215749;1276;140392;-62
2022/05/30 07:13:31;;;;;;;3.70;2.20;;;;;;;16.90;62.11;99214.86;213980;1276;141695;-62
2022/05/30 07:18:35;;;;;;;2.20;1.90;;;;;;;17.02;61.09;99218.86;215744;1276;140587;-61
2022/05/30 07:23:40;;;;;;;2.10;1.80;;;;;;;16.87;60.68;99218.55;214932;1276;140586;-64
2022/05/30 07:28:46;;;;;;;1.90;1.50;;;;;;;16.95;60.45;99217.64;215774;1276;143066;-61
2022/05/30 07:33:50;;;;;;;1.90;1.80;;;;;;;17.13;59.72;99216.64;215102;1276;140127;-62
2022/05/30 07:38:55;;;;;;;3.80;2.60;;;;;;;17.30;59.48;99217.02;214878;1276;141500;-61
2022/05/30 07:44:00;;;;;;;2.80;2.50;;;;;;;17.55;59.07;99219.34;213309;1275;163355;-62
2022/05/30 07:49:05;;;;;;;5.50;2.20;;;;;;;17.53;58.10;99226.27;214218;1276;140535;-62
2022/05/30 07:54:10;;;;;;;2.10;1.40;;;;;;;17.47;58.09;99227.58;213360;1275;142064;-61
2022/05/30 07:59:16;;;;;;;2.70;2.40;;;;;;;17.38;57.56;99232.48;214389;1276;141147;-62
2022/05/30 08:04:22;;;;;;;3.60;1.70;;;;;;;17.32;57.87;99231.76;214457;1276;140395;-63
2022/05/30 08:09:26;;;;;;;3.20;2.20;;;;;;;17.34;57.60;99232.10;213876;1276;142174;-62
2022/05/30 08:14:31;;;;;;;3.60;3.00;;;;;;;17.31;57.47;99234.67;213517;1276;140367;-63
2022/05/30 08:19:35;;;;;;;3.00;2.70;;;;;;;17.22;57.19;99238.30;213075;1277;141415;-62
2022/05/30 08:24:52;;;;;;;2.80;2.10;;;;;;;17.09;57.28;99242.48;214049;1277;142940;-62
2022/05/30 08:29:57;;;;;;;5.80;2.70;;;;;;;16.94;57.21;99246.73;213180;1277;141345;-62
2022/05/30 08:35:03;;;;;;;4.70;2.80;;;;;;;16.86;57.45;99247.25;213961;1276;142000;-63
2022/05/30 08:45:37;;;;;;;5.00;3.50;;;;;;;16.51;57.42;99257.70;214747;1277;141884;-63
2022/05/30 08:51:09;;;;;;;6.50;3.80;;;;;;;16.12;57.62;99254.47;214545;1276;140522;-63
2022/05/30 08:56:24;;;;;;;3.80;3.50;;;;;;;15.72;58.22;99256.73;214766;1276;140249;-62
2022/05/30 09:01:49;;;;;;;6.80;4.30;;;;;;;15.45;58.74;99267.04;215715;1276;140347;-62
2022/05/30 09:07:00;;;;;;;4.40;3.90;;;;;;;15.19;59.11;99258.91;216014;1276;141360;-62
2022/05/30 09:12:14;;;;;;;7.90;5.10;;;;;;;14.96;59.81;99267.81;215692;1277;140508;-62
2022/05/30 09:18:01;;;;;;;5.90;5.00;;;;;;;14.83;60.25;99265.60;213787;1277;139584;-61
2022/05/30 09:23:07;;;;;;;5.50;4.60;;;;;;;14.71;60.45;99274.16;215599;1276;140262;-65
2022/05/30 09:28:12;;;;;;;3.40;3.10;;;;;;;14.74;60.59;99279.95;214269;1276;141607;-64
2022/05/30 09:33:31;;;;;;;3.80;2.80;;;;;;;14.71;60.13;99283.19;214489;1276;140163;-61
2022/05/30 09:38:45;;;;;;;2.70;2.60;;;;;;;14.79;60.64;99288.27;215031;1276;140172;-62
2022/05/30 09:43:55;;;;;;;3.60;3.30;;;;;;;14.93;60.30;99290.80;215581;1277;140842;-62
2022/05/30 09:49:14;;;;;;;7.70;3.70;;;;;;;15.01;60.57;99288.45;213740;1276;140498;-62
2022/05/30 09:54:25;;;;;;;3.70;2.80;;;;;;;15.01;60.54;99288.40;213709;1277;141053;-62
2022/05/30 09:59:44;;;;;;;2.50;2.10;;;;;;;14.84;60.38;99301.18;214490;1276;140576;-61
2022/05/30 10:05:00;;;;;;;7.40;3.40;;;;;;;14.57;60.63;99305.70;213210;1276;140120;-61
2022/05/30 10:10:09;;;;;;;;;;;;;;;14.30;61.25;99309.19;213926;1274;140940;-61
2022/05/30 11:37:25;;;;;;;2.60;2.20;;;;;;;11.96;69.38;99414.67;214208;1277;139621;-64
2022/05/30 11:42:48;;;;;;;5.30;2.30;;;;;;;12.13;69.78;99421.17;214183;1277;140818;-64
2022/05/30 11:48:29;;;;;;;2.70;2.00;;;;;;;12.44;70.05;99417.60;213762;1276;140891;-63
2022/05/30 11:54:02;;;;;;;2.20;2.00;;;;;;;12.85;70.13;99417.48;213003;1277;139737;-64
2022/05/30 11:59:24;;;;;;;5.60;2.30;;;;;;;13.41;69.94;99416.71;213442;1277;139260;-63
2022/05/30 12:05:05;;;;;;;7.10;2.80;;;;;;;14.05;69.81;99413.23;213411;1276;140227;-65
2022/05/30 12:10:10;;;;;;;2.60;1.30;;;;;;;14.75;69.13;99413.57;214120;1277;140913;-63
2022/05/30 12:15:24;;;;;;;3.40;1.80;;;;;;;15.29;68.48;99410.35;213718;1277;139982;-66
2022/05/30 12:26:04;;;;;;;3.60;1.20;;;;;;;16.07;65.98;99397.71;214550;1277;141948;-64
2022/05/30 12:31:09;;;;;;;1.20;1.20;;;;;;;16.27;64.90;99399.17;214024;1276;141567;-64
2022/05/30 12:36:16;;;;;;;2.00;1.80;;;;;;;16.39;64.59;99391.62;214032;1277;142294;-63
2022/05/30 15:07:48;;;;;;;1.70;1.60;;;;;;;17.80;53.96;99383.70;214569;1275;140813;-63
2022/05/30 15:12:51;;;;;;;2.70;1.80;;;;;;;17.42;53.90;99388.79;214354;1276;139532;-63
2022/05/30 15:17:56;;;;;;;2.60;2.20;;;;;;;17.07;54.39;99397.38;213498;1276;141441;-64
2022/05/30 15:23:01;;;;;;;2.70;1.80;;;;;;;16.83;54.64;99399.23;212976;1276;141059;-63
2022/05/30 15:28:05;;;;;;;2.30;1.90;;;;;;;16.56;54.89;99408.88;214893;1277;141862;-66
2022/05/30 15:33:12;;;;;;;2.30;2.00;;;;;;;16.36;55.39;99408.64;215261;1276;140677;-63
2022/05/30 15:58:08;;;;;;;4.40;2.30;;;;;;;15.52;57.15;99441.77;213236;1276;140391;-63
2022/05/30 16:03:13;;;;;;;3.20;1.30;;;;;;;15.58;57.20;99444.73;213757;1277;141278;-62
2022/05/30 16:08:41;;;;;;;2.60;1.60;;;;;;;15.77;56.95;99447.02;214952;1277;142325;-65
2022/05/30 16:13:45;;;;;;;1.60;1.50;;;;;;;16.10;56.95;99447.23;213937;1277;139492;-64
2022/05/30 16:18:50;;;;;;;1.70;1.60;;;;;;;16.31;56.34;99446.66;214766;1276;140109;-63
2022/05/30 16:24:00;;;;;;;1.70;1.60;;;;;;;16.50;55.87;99448.77;213039;1277;162405;-63
2022/05/30 16:35:07;;;;;;;1.80;1.70;;;;;;;16.56;55.49;99453.91;213685;1277;140470;-61
2022/05/30 16:40:28;;;;;;;1.70;1.40;;;;;;;16.33;55.30;99458.64;212984;1277;139888;-61
2022/05/30 16:45:33;;;;;;;2.30;1.90;;;;;;;16.09;55.44;99470.63;214468;1276;140451;-63
2022/05/30 16:50:42;;;;;;;3.30;1.80;;;;;;;15.99;55.59;99475.61;215725;1276;140685;-62
2022/05/30 16:55:48;;;;;;;3.60;2.50;;;;;;;15.81;55.25;99487.04;215512;1277;450702;-63
2022/05/30 17:00:56;;;;;;;2.00;1.90;;;;;;;15.72;55.43;99491.00;215980;1276;141096;-64
2022/05/30 17:06:01;;;;;;;3.70;1.40;;;;;;;15.60;55.35;99501.13;213927;1277;140932;-61
2022/05/30 17:11:07;;;;;;;1.30;1.20;;;;;;;15.27;55.21;99503.70;215068;1277;140318;-61
2022/05/30 17:16:30;;;;;;;1.40;1.30;;;;;;;14.95;54.64;99510.02;215790;1276;140808;-62
2022/05/30 17:21:40;;;;;;;1.40;1.10;;;;;;;14.69;54.80;99513.59;215234;1276;139991;-64
2022/05/30 17:32:20;;;;;;;1.10;1.10;;;;;;;14.36;55.07;99528.16;214274;1276;139760;-64
2022/05/30 17:37:26;;;;;;;1.40;1.30;;;;;;;14.27;55.49;99534.95;214385;1277;141555;-65
2022/05/30 17:42:33;;;;;;;1.70;1.50;;;;;;;14.21;55.97;99537.43;213818;1277;141311;-64
2022/05/30 17:47:53;;;;;;;1.40;1.30;;;;;;;14.14;56.31;99535.80;214242;1277;139716;-64
2022/05/30 17:52:59;;;;;;;1.80;1.70;;;;;;;14.08;56.57;99542.27;214148;1277;163988;-64
2022/05/30 17:58:03;;;;;;;1.60;1.50;;;;;;;13.93;56.91;99538.78;214085;1275;140539;-64
2022/05/30 18:03:08;;;;;;;3.00;1.30;;;;;;;13.79;57.33;99537.79;213848;1277;139618;-64
2022/05/30 18:08:35;;;;;;;2.60;1.70;;;;;;;13.64;57.59;99540.50;213552;1276;140830;-65
2022/05/30 18:13:54;;;;;;;2.20;1.60;;;;;;;13.49;57.89;99540.26;213524;1277;139926;-66
2022/05/30 18:25:21;;;;;;;1.80;1.70;;;;;;;13.20;59.01;99543.42;214349;1277;141732;-64
2022/05/30 18:30:37;;;;;;;3.20;2.20;;;;;;;12.99;59.49;99545.48;214572;1276;140725;-65
2022/05/30 18:35:47;;;;;;;2.20;2.10;;;;;;;12.76;59.69;99546.23;214654;1277;140724;-65
2022/05/30 18:41:07;;;;;;;2.50;2.40;;;;;;;12.60;59.99;99545.33;213636;1276;140148;-65
2022/05/30 18:46:16;;;;;;;2.30;2.10;;;;;;;12.49;60.39;99561.86;215682;1276;140978;-65
2022/05/30 18:51:21;;;;;;;3.70;2.70;;;;;;;12.42;61.03;99576.37;213297;1277;140343;-64
2022/05/30 18:56:37;;;;;;;2.50;2.30;;;;;;;12.34;61.05;99588.23;215888;1276;139610;-65
2022/05/30 19:01:41;;;;;;;6.00;2.20;;;;;;;12.13;61.21;99601.41;215796;1277;139376;-65
2022/05/30 19:06:47;;;;;;;4.10;2.20;;;;;;;11.95;61.82;99609.83;215845;1277;142382;-65
2022/05/30 19:12:08;;;;;;;5.40;2.70;;;;;;;11.77;61.95;99615.60;215032;1276;140013;-64
2022/05/30 19:17:32;;;;;;;3.40;2.20;;;;;;;11.58;62.14;99621.49;215708;1276;141411;-64
2022/05/30 19:22:37;;;;;;;2.50;2.30;;;;;;;11.52;62.97;99624.56;213039;1277;140141;-64
2022/05/30 19:27:43;;;;;;;2.70;2.50;;;;;;;11.45;63.25;99633.95;214192;1277;140902;-63
2022/05/30 19:32:52;;;;;;;4.30;2.30;;;;;;;11.33;63.34;99634.59;213470;1277;139848;-64
2022/05/30 19:37:56;;;;;;;2.60;2.40;;;;;;;11.12;63.55;99640.54;213418;1277;140146;-65
2022/05/30 19:43:00;;;;;;;3.80;2.90;;;;;;;10.95;63.79;99645.16;213627;1277;141683;-65
2022/05/30 19:48:06;;;;;;;3.30;3.10;;;;;;;10.83;64.29;99642.80;213447;1277;140778;-64
2022/05/30 19:53:10;;;;;;;3.70;2.80;;;;;;;10.81;64.87;99637.86;213861;1277;140562;-65
2022/05/30 20:04:56;;;;;;;3.40;2.80;;;;;;;10.61;65.09;99624.62;214750;1276;140175;-64
2022/05/30 20:10:20;;;;;;;4.10;3.70;;;;;;;10.49;65.31;99620.35;214556;1276;141147;-64
